createdAt,value
2023-04-02T00:01:24.070Z,30.03
2023-04-02T00:03:50.551Z,22.33
2023-04-02T00:06:26.341Z,26.77
2023-04-02T00:08:52.913Z,23.25
2023-04-02T00:11:31.078Z,16.52
2023-04-02T00:14:01.477Z,23.70
2023-04-02T00:16:29.013Z,15.80
2023-04-02T00:19:01.412Z,27.58
2023-04-02T00:21:30.891Z,21.38
2023-04-02T00:24:00.869Z,23.13
2023-04-02T00:26:37.168Z,24.17
2023-04-02T00:29:07.722Z,20.25
2023-04-02T00:31:37.760Z,27.90
2023-04-02T00:34:07.018Z,22.60
2023-04-02T00:36:34.651Z,18.52
2023-04-02T00:39:04.273Z,19.90
2023-04-02T00:41:32.413Z,17.80
2023-04-02T00:43:59.539Z,26.35
2023-04-02T00:46:32.901Z,24.00
2023-04-02T00:49:12.586Z,24.13
2023-04-02T00:51:44.434Z,21.77
2023-04-02T00:54:13.057Z,19.42
2023-04-02T00:56:46.177Z,24.00
2023-04-02T00:59:42.984Z,18.90
2023-04-02T01:02:15.603Z,23.23
2023-04-02T01:04:42.129Z,21.90
2023-04-02T01:07:11.132Z,32.70
2023-04-02T01:10:18.129Z,24.77
2023-04-02T01:12:56.013Z,18.30
2023-04-02T01:15:32.596Z,26.73
2023-04-02T01:18:33.262Z,24.47
2023-04-02T01:21:08.193Z,15.95
2023-04-02T01:23:57.784Z,27.13
2023-04-02T01:26:34.915Z,22.67
2023-04-02T01:29:12.033Z,20.77
2023-04-02T01:31:39.572Z,23.57
2023-04-02T01:34:09.777Z,25.00
2023-04-02T01:36:54.784Z,23.00
2023-04-02T01:39:31.133Z,24.55
2023-04-02T01:41:57.643Z,28.67
2023-04-02T01:44:32.210Z,24.33
2023-04-02T01:46:59.428Z,27.13
2023-04-02T01:49:26.324Z,33.38
2023-04-02T01:51:55.255Z,24.70
2023-04-02T01:54:22.959Z,26.60
2023-04-02T01:56:51.597Z,26.77
2023-04-02T01:59:21.342Z,32.80
2023-04-02T02:02:14.689Z,20.48
2023-04-02T02:04:41.574Z,25.25
2023-04-02T02:07:15.726Z,29.40
2023-04-02T02:09:43.501Z,22.03
2023-04-02T02:12:13.977Z,23.08
2023-04-02T02:14:46.854Z,33.40
2023-04-02T02:17:27.457Z,20.73
2023-04-02T02:19:59.583Z,29.08
2023-04-02T02:22:36.060Z,20.50
2023-04-02T02:25:06.603Z,24.23
2023-04-02T02:27:42.990Z,37.42
2023-04-02T02:30:21.020Z,37.00
2023-04-02T02:33:19.272Z,31.95
2023-04-02T02:35:59.735Z,22.30
2023-04-02T02:38:44.297Z,23.70
2023-04-02T02:41:20.910Z,17.13
2023-04-02T02:43:59.591Z,25.30
2023-04-02T02:46:29.150Z,28.15
2023-04-02T02:48:57.655Z,25.67
2023-04-02T02:51:42.365Z,29.33
2023-04-02T02:54:09.058Z,23.17
2023-04-02T02:56:42.133Z,26.92
2023-04-02T02:59:10.873Z,26.77
2023-04-02T03:01:38.283Z,31.90
2023-04-02T03:04:05.176Z,33.13
2023-04-02T03:06:31.810Z,24.38
2023-04-02T03:09:16.084Z,25.55
2023-04-02T03:12:09.913Z,28.42
2023-04-02T03:15:05.587Z,29.93
2023-04-02T03:18:13.443Z,38.88
2023-04-02T03:20:55.524Z,30.65
2023-04-02T03:23:27.334Z,29.80
2023-04-02T03:26:04.794Z,30.85
2023-04-02T03:28:34.517Z,38.53
2023-04-02T03:31:08.258Z,30.55
2023-04-02T03:33:44.332Z,31.10
2023-04-02T03:36:32.075Z,20.48
2023-04-02T03:39:12.176Z,29.13
2023-04-02T03:41:51.850Z,40.70
2023-04-02T03:45:00.115Z,38.22
2023-04-02T03:47:36.629Z,31.30
2023-04-02T03:50:07.490Z,34.72
2023-04-02T03:52:37.300Z,33.85
2023-04-02T03:55:14.362Z,26.13
2023-04-02T03:57:47.930Z,31.27
2023-04-02T04:00:22.648Z,25.05
2023-04-02T04:03:02.455Z,25.95
2023-04-02T04:05:36.223Z,14.80
2023-04-02T04:08:07.188Z,19.93
2023-04-02T04:10:35.045Z,21.45
2023-04-02T04:13:08.641Z,17.83
2023-04-02T04:15:54.910Z,32.35
2023-04-02T04:18:33.571Z,24.02
2023-04-02T04:21:03.444Z,34.03
2023-04-02T04:23:38.381Z,28.77
2023-04-02T04:26:21.219Z,31.10
2023-04-02T04:29:01.274Z,29.50
2023-04-02T04:31:35.078Z,31.63
2023-04-02T04:34:08.614Z,25.77
2023-04-02T04:36:51.026Z,24.02
2023-04-02T04:39:26.977Z,25.27
2023-04-02T04:41:55.370Z,25.92
2023-04-02T04:44:35.513Z,19.50
2023-04-02T04:47:15.317Z,29.17
2023-04-02T04:49:58.241Z,17.73
2023-04-02T04:52:38.457Z,24.23
2023-04-02T04:55:26.920Z,20.85
2023-04-02T04:58:25.785Z,19.60
2023-04-02T05:01:07.507Z,18.03
2023-04-02T05:03:34.081Z,26.00
2023-04-02T05:06:39.776Z,29.17
2023-04-02T05:09:20.125Z,27.30
2023-04-02T05:11:55.369Z,28.17
2023-04-02T05:14:33.635Z,25.43
2023-04-02T05:17:50.054Z,23.13
2023-04-02T05:20:27.454Z,29.15
2023-04-02T05:23:12.402Z,22.42
2023-04-02T05:25:52.170Z,24.88
2023-04-02T05:28:32.112Z,29.63
2023-04-02T05:31:06.897Z,31.42
2023-04-02T05:33:36.160Z,18.85
2023-04-02T05:36:09.548Z,26.90
2023-04-02T05:38:38.936Z,19.65
2023-04-02T05:41:27.894Z,25.77
2023-04-02T05:44:22.982Z,25.38
2023-04-02T05:46:57.628Z,21.67
2023-04-02T05:49:53.151Z,26.30
2023-04-02T05:52:28.071Z,24.67
2023-04-02T05:55:06.919Z,27.23
2023-04-02T05:57:47.093Z,30.30
2023-04-02T06:00:31.668Z,27.58
2023-04-02T06:03:05.006Z,34.35
2023-04-02T06:05:39.738Z,27.45
2023-04-02T06:08:11.860Z,26.67
2023-04-02T06:10:47.956Z,25.25
2023-04-02T06:13:18.970Z,30.67
2023-04-02T06:15:47.669Z,31.40
2023-04-02T06:18:24.898Z,34.25
2023-04-02T06:20:52.077Z,35.07
2023-04-02T06:23:42.051Z,28.95
2023-04-02T06:26:19.600Z,34.67
2023-04-02T06:29:04.017Z,25.15
2023-04-02T06:31:39.103Z,35.38
2023-04-02T06:34:11.285Z,27.03
2023-04-02T06:36:37.770Z,30.08
2023-04-02T06:39:18.145Z,39.55
2023-04-02T06:41:44.629Z,41.65
2023-04-02T06:44:21.549Z,41.28
2023-04-02T06:46:58.908Z,33.93
2023-04-02T06:49:31.479Z,27.67
2023-04-02T06:52:01.081Z,34.22
2023-04-02T06:54:27.596Z,38.97
2023-04-02T06:56:55.456Z,32.78
2023-04-02T06:59:23.018Z,34.83
2023-04-02T07:01:57.785Z,25.48
2023-04-02T07:04:25.238Z,30.20
2023-04-02T07:06:51.842Z,24.98
2023-04-02T07:09:19.168Z,35.40
2023-04-02T07:11:45.680Z,31.70
2023-04-02T07:14:13.281Z,30.88
2023-04-02T07:16:42.671Z,27.17
2023-04-02T07:19:18.689Z,25.67
2023-04-02T07:21:45.223Z,23.40
2023-04-02T07:24:11.819Z,23.33
2023-04-02T07:26:38.399Z,23.88
2023-04-02T07:29:08.753Z,21.83
2023-04-02T07:31:35.454Z,27.30
2023-04-02T07:34:02.101Z,19.80
2023-04-02T07:36:29.502Z,25.73
2023-04-02T07:38:56.022Z,14.90
2023-04-02T07:41:22.600Z,25.75
2023-04-02T07:43:49.171Z,25.45
2023-04-02T07:46:15.754Z,19.42
2023-04-02T07:48:43.569Z,22.67
2023-04-02T07:51:24.981Z,14.50
2023-04-02T07:53:52.237Z,18.75
2023-04-02T07:56:19.680Z,18.00
2023-04-02T07:58:46.725Z,15.65
2023-04-02T08:01:27.741Z,16.60
2023-04-02T08:03:56.668Z,17.40
2023-04-02T08:06:24.128Z,16.50
2023-04-02T08:08:50.994Z,13.00
2023-04-02T08:11:17.516Z,16.23
2023-04-02T08:13:44.453Z,12.63
2023-04-02T08:16:11.495Z,14.90
2023-04-02T08:18:38.643Z,15.98
2023-04-02T08:21:10.343Z,14.50
2023-04-02T08:23:37.397Z,16.90
2023-04-02T08:26:04.718Z,11.77
2023-04-02T08:28:31.281Z,14.75
2023-04-02T08:30:57.741Z,12.10
2023-04-02T08:33:24.334Z,9.02
2023-04-02T08:35:50.924Z,10.18
2023-04-02T08:38:19.287Z,14.47
2023-04-02T08:40:49.579Z,19.25
2023-04-02T08:43:18.749Z,12.00
2023-04-02T08:45:54.215Z,17.63
2023-04-02T08:48:20.891Z,9.10
2023-04-02T08:50:47.451Z,11.83
2023-04-02T08:53:19.420Z,8.73
2023-04-02T08:55:58.668Z,10.15
2023-04-02T08:58:39.815Z,9.63
2023-04-02T09:01:09.896Z,11.27
2023-04-02T09:03:42.669Z,14.63
2023-04-02T09:06:13.408Z,11.43
2023-04-02T09:08:43.901Z,10.55
2023-04-02T09:11:13.092Z,12.68
2023-04-02T09:13:45.720Z,11.50
2023-04-02T09:16:16.214Z,7.80
2023-04-02T09:18:44.835Z,6.88
2023-04-02T09:21:20.736Z,12.50
2023-04-02T09:23:47.920Z,8.85
2023-04-02T09:26:22.889Z,9.98
2023-04-02T09:28:59.591Z,7.97
2023-04-02T09:31:34.280Z,7.38
2023-04-02T09:34:00.776Z,8.88
2023-04-02T09:36:38.145Z,9.93
2023-04-02T09:39:12.109Z,7.85
2023-04-02T09:41:38.637Z,7.73
2023-04-02T09:44:34.658Z,7.05
2023-04-02T09:47:06.825Z,6.05
2023-04-02T09:49:36.817Z,7.78
2023-04-02T09:52:28.856Z,5.82
2023-04-02T09:55:07.557Z,7.87
2023-04-02T09:57:34.134Z,7.45
2023-04-02T10:00:30.663Z,9.00
2023-04-02T10:03:21.969Z,7.97
2023-04-02T10:05:49.092Z,4.93
2023-04-02T10:08:21.298Z,8.30
2023-04-02T10:10:53.465Z,5.82
2023-04-02T10:13:51.235Z,6.32
2023-04-02T10:16:27.267Z,7.07
2023-04-02T10:19:14.393Z,7.65
2023-04-02T10:21:43.286Z,4.97
2023-04-02T10:24:14.885Z,5.57
2023-04-02T10:27:06.010Z,6.97
2023-04-02T10:29:49.852Z,7.00
2023-04-02T10:32:35.297Z,5.00
2023-04-02T10:35:03.301Z,6.07
2023-04-02T10:37:32.851Z,4.65
2023-04-02T10:40:26.028Z,5.72
2023-04-02T10:43:30.614Z,6.07
2023-04-02T10:46:03.162Z,5.65
2023-04-02T10:48:56.835Z,5.23
2023-04-02T10:51:53.441Z,4.88
2023-04-02T10:54:19.900Z,8.10
2023-04-02T10:56:50.937Z,6.32
2023-04-02T10:59:30.044Z,6.68
2023-04-02T11:02:01.358Z,6.63
2023-04-02T11:04:33.212Z,6.93
2023-04-02T11:07:15.038Z,7.22
2023-04-02T11:09:45.239Z,6.70
2023-04-02T11:12:41.724Z,7.75
2023-04-02T11:15:17.088Z,6.30
2023-04-02T11:17:45.353Z,7.18
2023-04-02T11:20:48.879Z,8.70
2023-04-02T11:23:19.201Z,6.50
2023-04-02T11:25:46.550Z,7.85
2023-04-02T11:28:19.092Z,6.43
2023-04-02T11:30:48.532Z,9.40
2023-04-02T11:33:44.796Z,6.45
2023-04-02T11:36:49.946Z,4.85
2023-04-02T11:39:46.042Z,6.97
2023-04-02T11:42:18.306Z,5.20
2023-04-02T11:44:45.221Z,8.82
2023-04-02T11:47:21.801Z,7.45
2023-04-02T11:50:00.949Z,6.32
2023-04-02T11:52:37.647Z,6.72
2023-04-02T11:55:24.114Z,6.03
2023-04-02T11:58:15.127Z,9.55
2023-04-02T12:01:07.650Z,5.72
2023-04-02T12:03:52.714Z,9.82
2023-04-02T12:06:38.562Z,5.35
2023-04-02T12:09:23.200Z,5.67
2023-04-02T12:11:52.063Z,7.18
2023-04-02T12:14:37.777Z,6.55
2023-04-02T12:17:15.278Z,5.68
2023-04-02T12:19:47.807Z,6.35
2023-04-02T12:22:23.863Z,8.40
2023-04-02T12:24:51.248Z,8.57
2023-04-02T12:27:20.925Z,6.43
2023-04-02T12:29:47.390Z,6.93
2023-04-02T12:32:31.597Z,5.65
2023-04-02T12:34:58.986Z,5.80
2023-04-02T12:37:28.330Z,5.90
2023-04-02T12:39:58.638Z,5.43
2023-04-02T12:42:43.262Z,5.07
2023-04-02T12:45:30.889Z,7.65
2023-04-02T12:48:00.670Z,7.40
2023-04-02T12:50:27.254Z,5.43
2023-04-02T12:52:55.328Z,5.68
2023-04-02T12:55:24.659Z,5.57
2023-04-02T12:57:59.199Z,9.18
2023-04-02T13:00:25.640Z,6.63
2023-04-02T13:03:00.463Z,7.32
2023-04-02T13:05:46.810Z,9.40
2023-04-02T13:08:45.584Z,7.90
2023-04-02T13:11:12.110Z,8.50
2023-04-02T13:13:41.672Z,6.53
2023-04-02T13:16:17.227Z,5.55
2023-04-02T13:18:47.368Z,6.63
2023-04-02T13:21:16.804Z,6.65
2023-04-02T13:23:44.384Z,6.93
2023-04-02T13:26:22.955Z,6.00
2023-04-02T13:28:59.997Z,7.15
2023-04-02T13:31:27.068Z,7.45
2023-04-02T13:33:53.536Z,6.72
2023-04-02T13:36:20.948Z,5.82
2023-04-02T13:38:47.436Z,15.93
2023-04-02T13:41:36.690Z,6.25
2023-04-02T13:44:03.485Z,5.68
2023-04-02T13:46:32.476Z,9.93
2023-04-02T13:48:59.070Z,7.80
2023-04-02T13:51:47.294Z,7.70
2023-04-02T13:54:27.187Z,3.92
2023-04-02T13:56:55.881Z,12.35
2023-04-02T13:59:22.773Z,5.97
2023-04-02T14:01:51.594Z,5.70
2023-04-02T14:04:26.079Z,4.83
2023-04-02T14:07:14.346Z,8.20
2023-04-02T14:09:53.258Z,7.97
2023-04-02T14:12:47.621Z,5.93
2023-04-02T14:15:25.021Z,7.72
2023-04-02T14:18:31.360Z,6.27
2023-04-02T14:21:35.066Z,10.05
2023-04-02T14:24:10.480Z,5.03
2023-04-02T14:26:55.296Z,10.52
2023-04-02T14:29:30.532Z,11.88
2023-04-02T14:32:18.725Z,5.50
2023-04-02T14:35:03.078Z,6.50
2023-04-02T14:37:38.504Z,7.68
2023-04-02T14:40:27.197Z,5.20
2023-04-02T14:43:04.906Z,15.10
2023-04-02T14:45:58.568Z,6.20
2023-04-02T14:48:49.462Z,8.15
2023-04-02T14:51:24.809Z,11.13
2023-04-02T14:54:12.629Z,8.88
2023-04-02T14:56:49.407Z,5.20
2023-04-02T14:59:39.285Z,6.27
2023-04-02T15:02:30.264Z,6.60
2023-04-02T15:05:27.842Z,6.85
2023-04-02T15:08:07.512Z,13.93
2023-04-02T15:10:40.973Z,11.85
2023-04-02T15:13:21.334Z,10.20
2023-04-02T15:16:11.732Z,7.78
2023-04-02T15:18:38.428Z,11.40
2023-04-02T15:21:19.955Z,9.10
2023-04-02T15:24:04.121Z,9.52
2023-04-02T15:26:30.545Z,7.57
2023-04-02T15:29:15.828Z,11.05
2023-04-02T15:31:51.304Z,7.93
2023-04-02T15:34:20.535Z,11.63
2023-04-02T15:37:07.572Z,9.57
2023-04-02T15:40:00.260Z,8.57
2023-04-02T15:42:34.349Z,6.95
2023-04-02T15:45:07.018Z,7.40
2023-04-02T15:47:36.933Z,7.60
2023-04-02T15:50:22.052Z,8.52
2023-04-02T15:52:59.038Z,9.07
2023-04-02T15:55:49.277Z,10.27
2023-04-02T15:58:55.560Z,9.20
2023-04-02T16:01:43.693Z,9.77
2023-04-02T16:04:28.963Z,6.80
2023-04-02T16:07:14.252Z,7.77
2023-04-02T16:10:00.265Z,8.13
2023-04-02T16:12:29.445Z,10.05
2023-04-02T16:15:02.950Z,10.05
2023-04-02T16:17:36.138Z,7.90
2023-04-02T16:20:39.634Z,10.17
2023-04-02T16:23:20.413Z,11.15
2023-04-02T16:25:52.787Z,10.43
2023-04-02T16:28:40.763Z,11.30
2023-04-02T16:31:22.465Z,16.88
2023-04-02T16:34:06.984Z,16.00
2023-04-02T16:36:52.712Z,21.95
2023-04-02T16:39:22.026Z,28.27
2023-04-02T16:42:03.402Z,22.90
2023-04-02T16:44:29.906Z,14.93
2023-04-02T16:47:05.733Z,7.37
2023-04-02T16:49:35.295Z,10.38
2023-04-02T16:52:20.185Z,10.65
2023-04-02T16:55:05.078Z,13.38
2023-04-02T16:57:43.458Z,16.67
2023-04-02T17:00:37.729Z,9.80
2023-04-02T17:03:43.358Z,8.68
2023-04-02T17:06:30.964Z,9.68
2023-04-02T17:09:39.116Z,8.52
2023-04-02T17:12:20.398Z,9.20
2023-04-02T17:14:59.431Z,10.20
2023-04-02T17:17:26.126Z,14.32
2023-04-02T17:19:58.609Z,11.27
2023-04-02T17:22:25.207Z,13.13
2023-04-02T17:24:55.757Z,8.38
2023-04-02T17:27:35.474Z,10.23
2023-04-02T17:30:15.506Z,12.30
2023-04-02T17:32:42.015Z,7.15
2023-04-02T17:35:26.861Z,11.32
2023-04-02T17:38:08.252Z,10.32
2023-04-02T17:40:58.448Z,11.77
2023-04-02T17:43:42.465Z,10.07
2023-04-02T17:46:36.633Z,9.77
2023-04-02T17:49:38.140Z,9.90
2023-04-02T17:52:22.179Z,10.80
2023-04-02T17:55:04.508Z,12.97
2023-04-02T17:57:58.561Z,11.25
2023-04-02T18:00:46.377Z,11.70
2023-04-02T18:03:42.401Z,10.35
2023-04-02T18:06:31.793Z,10.77
2023-04-02T18:09:17.663Z,11.03
2023-04-02T18:11:50.672Z,16.48
2023-04-02T18:14:46.413Z,11.57
2023-04-02T18:17:52.992Z,13.43
2023-04-02T18:20:38.368Z,18.13
2023-04-02T18:23:19.889Z,18.40
2023-04-02T18:26:02.099Z,17.80
2023-04-02T18:28:44.421Z,16.02
2023-04-02T18:31:27.212Z,16.25
2023-04-02T18:34:25.788Z,16.60
2023-04-02T18:37:13.808Z,10.83
2023-04-02T18:40:11.213Z,9.20
2023-04-02T18:42:40.406Z,11.38
2023-04-02T18:45:13.993Z,10.10
2023-04-02T18:47:43.631Z,10.93
2023-04-02T18:50:35.168Z,10.67
2023-04-02T18:53:13.633Z,9.75
2023-04-02T18:55:46.237Z,10.43
2023-04-02T18:58:24.730Z,9.32
2023-04-02T19:00:53.794Z,13.65
2023-04-02T19:03:27.982Z,10.40
2023-04-02T19:06:17.598Z,9.25
2023-04-02T19:08:53.923Z,9.68
2023-04-02T19:11:23.083Z,10.45
2023-04-02T19:13:49.806Z,11.77
2023-04-02T19:16:48.837Z,10.80
2023-04-02T19:19:29.076Z,9.77
2023-04-02T19:22:35.125Z,13.38
2023-04-02T19:25:26.628Z,8.95
2023-04-02T19:28:00.669Z,8.98
2023-04-02T19:30:42.932Z,8.00
2023-04-02T19:33:27.536Z,10.77
2023-04-02T19:36:00.516Z,12.25
2023-04-02T19:38:59.620Z,7.68
2023-04-02T19:41:31.824Z,6.43
2023-04-02T19:43:58.698Z,7.70
2023-04-02T19:46:26.491Z,13.95
2023-04-02T19:49:14.289Z,11.85
2023-04-02T19:51:40.809Z,7.90
2023-04-02T19:54:07.271Z,17.17
2023-04-02T19:56:33.797Z,13.07
2023-04-02T19:59:07.720Z,11.20
2023-04-02T20:01:43.461Z,11.25
2023-04-02T20:04:10.022Z,13.93
2023-04-02T20:06:36.644Z,14.93
2023-04-02T20:09:03.697Z,11.93
2023-04-02T20:11:30.232Z,10.35
2023-04-02T20:13:56.787Z,9.77
2023-04-02T20:16:23.537Z,8.32
2023-04-02T20:18:51.108Z,13.48
2023-04-02T20:21:17.616Z,14.93
2023-04-02T20:23:44.087Z,14.52
2023-04-02T20:26:10.950Z,16.95
2023-04-02T20:28:37.478Z,12.30
2023-04-02T20:31:16.634Z,11.55
2023-04-02T20:33:43.799Z,9.33
2023-04-02T20:36:13.477Z,13.27
2023-04-02T20:38:40.527Z,9.90
2023-04-02T20:41:07.887Z,11.38
2023-04-02T20:43:34.793Z,11.32
2023-04-02T20:46:03.851Z,13.33
2023-04-02T20:48:31.596Z,15.77
2023-04-02T20:51:00.155Z,13.13
2023-04-02T20:53:29.272Z,15.32
2023-04-02T20:56:15.899Z,16.00
2023-04-02T20:58:43.462Z,16.83
2023-04-02T21:01:25.937Z,14.43
2023-04-02T21:04:03.120Z,17.48
2023-04-02T21:06:31.735Z,15.25
2023-04-02T21:08:58.977Z,14.98
2023-04-02T21:11:25.509Z,14.27
2023-04-02T21:13:52.483Z,14.25
2023-04-02T21:16:24.099Z,16.55
2023-04-02T21:18:52.306Z,15.63
2023-04-02T21:21:20.315Z,13.63
2023-04-02T21:23:47.433Z,20.30
2023-04-02T21:26:16.735Z,15.40
2023-04-02T21:28:44.873Z,20.83
2023-04-02T21:31:16.617Z,18.38
2023-04-02T21:33:54.283Z,20.55
2023-04-02T21:36:22.529Z,17.17
2023-04-02T21:38:51.867Z,20.45
2023-04-02T21:41:23.841Z,13.75
2023-04-02T21:43:50.740Z,15.77
2023-04-02T21:46:21.523Z,17.33
2023-04-02T21:48:49.820Z,14.03
2023-04-02T21:51:19.276Z,21.15
2023-04-02T21:53:45.867Z,16.05
2023-04-02T21:56:17.988Z,16.88
2023-04-02T21:58:45.985Z,13.55
2023-04-02T22:01:23.797Z,17.17
2023-04-02T22:03:54.639Z,25.98
2023-04-02T22:06:22.727Z,18.35
2023-04-02T22:08:57.976Z,14.68
2023-04-02T22:11:27.709Z,16.88
2023-04-02T22:13:54.495Z,13.83
2023-04-02T22:16:23.776Z,13.52
2023-04-02T22:18:52.229Z,13.85
2023-04-02T22:21:19.633Z,16.75
2023-04-02T22:23:47.275Z,14.02
2023-04-02T22:26:16.071Z,14.40
2023-04-02T22:28:42.872Z,14.57
2023-04-02T22:31:16.028Z,14.00
2023-04-02T22:33:44.995Z,13.70
2023-04-02T22:36:12.685Z,17.33
2023-04-02T22:38:41.955Z,18.67
2023-04-02T22:41:13.804Z,16.35
2023-04-02T22:43:42.215Z,17.77
2023-04-02T22:46:09.793Z,20.55
2023-04-02T22:48:36.768Z,17.83
2023-04-02T22:51:03.394Z,14.37
2023-04-02T22:53:29.923Z,16.67
2023-04-02T22:56:02.512Z,17.00
2023-04-02T22:58:29.097Z,15.80
2023-04-02T23:00:55.570Z,16.52
2023-04-02T23:03:22.079Z,20.43
2023-04-02T23:05:58.998Z,17.35
2023-04-02T23:08:25.563Z,19.08
2023-04-02T23:11:01.016Z,19.25
2023-04-02T23:13:28.150Z,19.02
2023-04-02T23:15:54.873Z,20.30
2023-04-02T23:18:23.181Z,19.85
2023-04-02T23:20:49.656Z,16.50
2023-04-02T23:23:16.119Z,15.23
2023-04-02T23:25:42.671Z,20.48
2023-04-02T23:28:10.422Z,15.97
2023-04-02T23:30:37.157Z,17.15
2023-04-02T23:33:04.832Z,14.65
2023-04-02T23:35:31.378Z,15.70
2023-04-02T23:37:57.891Z,14.27
2023-04-02T23:40:24.420Z,18.00
2023-04-02T23:42:50.911Z,18.38
2023-04-02T23:45:17.377Z,19.13
2023-04-02T23:47:43.915Z,16.98
2023-04-02T23:50:10.777Z,13.15
2023-04-02T23:52:37.300Z,13.77
2023-04-02T23:55:04.063Z,18.17
2023-04-02T23:57:30.600Z,12.75
2023-04-02T23:59:57.192Z,14.20
